Time,TemperatureF,DewpointF,PressureIn,WindDirection,WindDirectionDegrees,WindSpeedMPH,WindSpeedGustMPH,Humidity,HourlyPrecipIn,Conditions,Clouds,dailyrainin,SoftwareType,DateUTC
2013-04-15 00:00:00,51.3,31.2,29.62,WNW,303,3.0,6.0,46,0.00,RA,,0.00,WeatherDisplay:10.37,2013-04-15 05:00:00,
2013-04-15 00:05:00,51.3,31.2,29.63,NW,306,3.0,6.0,46,0.00,RA,,0.00,WeatherDisplay:10.37,2013-04-15 05:05:00,
2013-04-15 00:10:00,51.4,30.7,29.65,WNW,300,5.0,8.0,45,0.00,RA,,0.00,WeatherDisplay:10.37,2013-04-15 05:10:00,
2013-04-15 00:15:00,51.6,30.9,29.65,WNW,296,5.0,8.0,45,0.00,RA,,0.00,WeatherDisplay:10.37,2013-04-15 05:15:00,
2013-04-15 00:20:00,51.6,30.9,29.65,WNW,296,3.0,7.0,45,0.00,CLR,,0.00,WeatherDisplay:10.37,2013-04-15 05:20:00,
2013-04-15 00:30:00,51.0,30.9,29.66,WNW,294,3.0,5.0,46,0.00,CLR,,0.00,WeatherDisplay:10.37,2013-04-15 05:30:00,
2013-04-15 00:40:00,50.7,31.8,29.66,WNW,290,2.0,4.0,48,0.00,CLR,,0.00,WeatherDisplay:10.37,2013-04-15 05:40:00,
2013-04-15 00:45:00,50.8,31.3,29.66,WNW,290,2.0,4.0,47,0.00,CLR,,0.00,WeatherDisplay:10.37,2013-04-15 05:45:00,
2013-04-15 00:50:00,50.9,31.3,29.66,WNW,290,2.0,4.0,47,0.00,CLR,,0.00,WeatherDisplay:10.37,2013-04-15 05:50:00,
2013-04-15 00:55:00,50.9,30.8,29.67,WNW,290,2.0,4.0,46,0.00,CLR,,0.00,WeatherDisplay:10.37,2013-04-15 05:55:00,
2013-04-15 01:00:00,50.8,30.2,29.66,WNW,290,1.0,3.0,45,0.00,CLR,,0.00,WeatherDisplay:10.37,2013-04-15 06:00:00,
2013-04-15 01:10:00,50.9,29.2,29.66,WNW,290,1.0,2.0,43,0.00,SCT,,0.00,WeatherDisplay:10.37,2013-04-15 06:10:00,
2013-04-15 01:15:00,51.1,29.3,29.66,WNW,290,2.0,3.0,43,0.00,SCT,,0.00,WeatherDisplay:10.37,2013-04-15 06:15:00,
2013-04-15 01:20:00,51.0,30.4,29.66,WNW,290,2.0,3.0,45,0.00,SCT,,0.00,WeatherDisplay:10.37,2013-04-15 06:20:00,
2013-04-15 01:25:00,50.7,30.2,29.66,WNW,290,1.0,3.0,45,0.00,SCT,,0.00,WeatherDisplay:10.37,2013-04-15 06:25:00,
2013-04-15 01:30:00,50.7,30.1,29.67,WNW,290,1.0,3.0,45,0.00,SCT,,0.00,WeatherDisplay:10.37,2013-04-15 06:30:00,
2013-04-15 01:40:00,50.6,29.5,29.65,NW,318,6.0,7.0,44,0.00,SCT,,0.00,WeatherDisplay:10.37,2013-04-15 06:40:00,
2013-04-15 01:45:00,50.4,30.9,29.64,NNW,334,3.0,8.0,47,0.00,SCT,,0.00,WeatherDisplay:10.37,2013-04-15 06:45:00,
2013-04-15 01:50:00,50.1,30.1,29.64,NNW,338,5.0,7.0,46,0.00,SCT,,0.00,WeatherDisplay:10.37,2013-04-15 06:50:00,
2013-04-15 01:55:00,50.2,29.1,29.64,NNW,333,5.0,7.0,44,0.00,SCT,,0.00,WeatherDisplay:10.37,2013-04-15 06:55:00,
2013-04-15 02:00:00,50.2,29.1,29.64,NNW,329,5.0,7.0,44,0.00,SCT,,0.00,WeatherDisplay:10.37,2013-04-15 07:00:00,
2013-04-15 02:50:00,49.7,25.7,29.68,NW,319,1.0,6.0,39,0.00,BKN,,0.00,WeatherDisplay:10.37,2013-04-15 07:50:00,
2013-04-15 02:55:00,49.7,25.7,29.68,WNW,282,2.0,4.0,39,0.00,BKN,,0.00,WeatherDisplay:10.37,2013-04-15 07:55:00,
2013-04-15 03:00:00,49.8,25.1,29.68,West,265,2.0,3.0,38,0.00,BKN,,0.00,WeatherDisplay:10.37,2013-04-15 08:00:00,
2013-04-15 03:05:00,49.9,25.9,29.68,West,265,2.0,4.0,39,0.00,OVC,,0.00,WeatherDisplay:10.37,2013-04-15 08:05:00,
2013-04-15 03:10:00,49.9,26.5,29.68,West,265,0.0,4.0,40,0.00,OVC,,0.00,WeatherDisplay:10.37,2013-04-15 08:10:00,
2013-04-15 03:15:00,49.8,25.8,29.67,West,265,0.0,3.0,39,0.00,OVC,,0.00,WeatherDisplay:10.37,2013-04-15 08:15:00,
2013-04-15 03:20:00,49.8,25.8,29.68,West,265,2.0,4.0,39,0.00,OVC,,0.00,WeatherDisplay:10.37,2013-04-15 08:20:00,
2013-04-15 03:25:00,49.7,26.3,29.68,West,265,3.0,4.0,40,0.00,OVC,,0.00,WeatherDisplay:10.37,2013-04-15 08:25:00,
2013-04-15 03:40:00,49.2,27.0,29.69,West,263,1.0,3.0,42,0.00,OVC,,0.00,WeatherDisplay:10.37,2013-04-15 08:40:00,
2013-04-15 03:45:00,49.1,26.4,29.69,West,263,3.0,4.0,41,0.00,OVC,,0.00,WeatherDisplay:10.37,2013-04-15 08:45:00,
2013-04-15 03:50:00,49.2,25.8,29.69,West,263,1.0,3.0,40,0.00,OVC,,0.00,WeatherDisplay:10.37,2013-04-15 08:50:00,
2013-04-15 03:55:00,49.2,26.4,29.69,West,263,1.0,2.0,41,0.00,OVC,,0.00,WeatherDisplay:10.37,2013-04-15 08:55:00,
2013-04-15 04:00:00,48.8,27.8,29.70,West,263,2.0,3.0,44,0.00,OVC,,0.00,WeatherDisplay:10.37,2013-04-15 09:00:00,
2013-04-15 04:10:00,48.0,29.3,29.70,West,263,2.0,4.0,48,0.00,OVC,,0.00,WeatherDisplay:10.37,2013-04-15 09:10:00,
2013-04-15 04:15:00,47.9,29.1,29.70,West,263,2.0,3.0,48,0.00,OVC,,0.00,WeatherDisplay:10.37,2013-04-15 09:15:00,
2013-04-15 04:20:00,47.9,28.1,29.70,West,263,2.0,3.0,46,0.00,OVC,,0.00,WeatherDisplay:10.37,2013-04-15 09:20:00,
2013-04-15 04:25:00,48.2,27.8,29.70,West,263,2.0,3.0,45,0.00,OVC,,0.00,WeatherDisplay:10.37,2013-04-15 09:25:00,
2013-04-15 04:30:00,48.2,29.4,29.71,West,262,2.0,4.0,48,0.00,OVC,,0.00,WeatherDisplay:10.37,2013-04-15 09:30:00,
2013-04-15 04:40:00,47.6,29.8,29.70,WSW,256,2.0,3.0,50,0.00,OVC,,0.00,WeatherDisplay:10.37,2013-04-15 09:40:00,
2013-04-15 04:45:00,47.8,28.0,29.70,WSW,256,1.0,3.0,46,0.00,OVC,,0.00,WeatherDisplay:10.37,2013-04-15 09:45:00,
2013-04-15 04:50:00,48.1,27.2,29.70,WSW,256,2.0,3.0,44,0.00,OVC,,0.00,WeatherDisplay:10.37,2013-04-15 09:50:00,
2013-04-15 04:55:00,48.4,25.7,29.69,WSW,256,0.0,2.0,41,0.00,OVC,,0.00,WeatherDisplay:10.37,2013-04-15 09:55:00,
2013-04-15 05:00:00,48.4,29.6,29.69,WSW,256,0.0,1.0,48,0.00,OVC,,0.00,WeatherDisplay:10.37,2013-04-15 10:00:00,
2013-04-15 05:10:00,49.0,26.8,29.74,SW,217,6.0,8.0,42,0.00,OVC,,0.00,WeatherDisplay:10.37,2013-04-15 10:10:00,
2013-04-15 05:15:00,48.9,29.0,29.72,SW,216,1.0,6.0,46,0.00,OVC,,0.00,WeatherDisplay:10.37,2013-04-15 10:15:00,
2013-04-15 05:20:00,48.6,29.3,29.71,SW,217,0.0,3.0,47,0.00,OVC,,0.00,WeatherDisplay:10.37,2013-04-15 10:20:00,
2013-04-15 05:25:00,48.5,27.0,29.72,SW,217,2.0,4.0,43,0.00,OVC,,0.00,WeatherDisplay:10.37,2013-04-15 10:25:00,
2013-04-15 05:30:00,48.7,25.5,29.71,SW,217,0.0,3.0,40,0.00,OVC,,0.00,WeatherDisplay:10.37,2013-04-15 10:30:00,
2013-04-15 05:35:00,48.5,31.2,29.67,NNE,33,6.0,8.0,51,0.00,OVC,,0.00,WeatherDisplay:10.37,2013-04-15 10:35:00,
2013-04-15 05:40:00,47.7,30.9,29.68,NE,46,0.0,7.0,52,0.00,OVC,,0.00,WeatherDisplay:10.37,2013-04-15 10:40:00,
2013-04-15 05:45:00,47.5,31.6,29.71,East,81,5.0,6.0,54,0.00,OVC,,0.00,WeatherDisplay:10.37,2013-04-15 10:45:00,
2013-04-15 05:50:00,47.4,30.1,29.71,SW,216,1.0,5.0,51,0.00,OVC,,0.00,WeatherDisplay:10.37,2013-04-15 10:50:00,
2013-04-15 05:55:00,47.4,32.4,29.69,SW,216,1.0,3.0,56,0.00,OVC,,0.00,WeatherDisplay:10.37,2013-04-15 10:55:00,
2013-04-15 06:00:00,46.9,32.0,29.70,SW,216,1.0,2.0,56,0.00,OVC,,0.00,WeatherDisplay:10.37,2013-04-15 11:00:00,
2013-04-15 06:10:00,47.1,29.8,29.70,SW,216,0.0,2.0,51,0.00,OVC,,0.00,WeatherDisplay:10.37,2013-04-15 11:10:00,
2013-04-15 06:15:00,47.3,28.6,29.70,SW,216,0.0,4.0,48,0.00,OVC,,0.00,WeatherDisplay:10.37,2013-04-15 11:15:00,
2013-04-15 06:20:00,47.6,34.4,29.70,SW,216,0.0,0.0,60,0.00,OVC,,0.00,WeatherDisplay:10.37,2013-04-15 11:20:00,
2013-04-15 06:25:00,47.2,34.4,29.70,SW,216,1.0,2.0,61,0.00,OVC,,0.00,WeatherDisplay:10.37,2013-04-15 11:25:00,
2013-04-15 06:30:00,46.9,34.1,29.71,SW,216,0.0,2.0,61,0.00,OVC,,0.00,WeatherDisplay:10.37,2013-04-15 11:30:00,
2013-04-15 06:40:00,46.8,32.3,29.71,SW,216,0.0,2.0,57,0.00,OVC,,0.00,WeatherDisplay:10.37,2013-04-15 11:40:00,
2013-04-15 06:45:00,46.9,32.0,29.72,SW,216,0.0,1.0,56,0.00,OVC,,0.00,WeatherDisplay:10.37,2013-04-15 11:45:00,
2013-04-15 06:50:00,47.1,31.7,29.72,SW,216,0.0,2.0,55,0.00,OVC,,0.00,WeatherDisplay:10.37,2013-04-15 11:50:00,
2013-04-15 06:55:00,47.2,33.1,29.73,SW,214,2.0,4.0,58,0.00,OVC,,0.00,WeatherDisplay:10.37,2013-04-15 11:55:00,
2013-04-15 07:00:00,47.0,33.8,29.73,SSW,213,1.0,4.0,60,0.00,OVC,,0.00,WeatherDisplay:10.37,2013-04-15 12:00:00,
2013-04-15 07:10:00,46.3,35.1,29.74,SSW,211,1.0,3.0,65,0.00,OVC,,0.00,WeatherDisplay:10.37,2013-04-15 12:10:00,
2013-04-15 07:15:00,45.9,35.2,29.74,SSW,211,1.0,2.0,66,0.00,OVC,,0.00,WeatherDisplay:10.37,2013-04-15 12:15:00,
2013-04-15 07:20:00,45.8,35.8,29.74,SSW,211,1.0,2.0,68,0.00,OVC,,0.00,WeatherDisplay:10.37,2013-04-15 12:20:00,
2013-04-15 07:25:00,45.6,36.1,29.74,SSW,211,1.0,3.0,69,0.00,OVC,,0.00,WeatherDisplay:10.37,2013-04-15 12:25:00,
2013-04-15 07:30:00,45.6,36.0,29.74,SSW,211,1.0,4.0,69,0.00,OVC,,0.00,WeatherDisplay:10.37,2013-04-15 12:30:00,
2013-04-15 07:45:00,45.7,36.4,29.74,SSW,211,0.0,2.0,70,0.00,OVC,,0.00,WeatherDisplay:10.37,2013-04-15 12:45:00,
2013-04-15 07:50:00,45.8,37.2,29.74,SSW,211,0.0,1.0,72,0.00,OVC,,0.00,WeatherDisplay:10.37,2013-04-15 12:50:00,
2013-04-15 07:55:00,45.9,36.6,29.75,SSW,211,1.0,2.0,70,0.00,OVC,,0.00,WeatherDisplay:10.37,2013-04-15 12:55:00,
2013-04-15 08:00:00,46.0,36.8,29.75,SSW,211,0.0,2.0,70,0.00,OVC,,0.00,WeatherDisplay:10.37,2013-04-15 13:00:00,
2013-04-15 08:10:00,46.3,35.9,29.75,SSW,211,0.0,0.0,67,0.00,OVC,,0.00,WeatherDisplay:10.37,2013-04-15 13:10:00,
2013-04-15 08:15:00,46.5,36.1,29.76,SSW,211,0.0,1.0,67,0.00,OVC,,0.00,WeatherDisplay:10.37,2013-04-15 13:15:00,
2013-04-15 08:20:00,46.7,36.3,29.76,SSW,211,0.0,1.0,67,0.00,OVC,,0.00,WeatherDisplay:10.37,2013-04-15 13:20:00,
2013-04-15 08:30:00,46.9,36.9,29.77,SSW,211,2.0,3.0,68,0.00,OVC,,0.00,WeatherDisplay:10.37,2013-04-15 13:30:00,
2013-04-15 08:40:00,47.0,36.9,29.77,SSW,211,2.0,4.0,68,0.00,OVC,,0.00,WeatherDisplay:10.37,2013-04-15 13:40:00,
2013-04-15 08:45:00,47.0,36.6,29.77,SSW,211,1.0,3.0,67,0.00,OVC,,0.00,WeatherDisplay:10.37,2013-04-15 13:45:00,
2013-04-15 08:50:00,47.1,37.0,29.77,SSW,211,2.0,4.0,68,0.00,OVC,,0.00,WeatherDisplay:10.37,2013-04-15 13:50:00,
2013-04-15 08:55:00,47.2,37.6,29.76,SSW,211,1.0,3.0,69,0.00,OVC,,0.00,WeatherDisplay:10.37,2013-04-15 13:55:00,
2013-04-15 09:00:00,47.3,37.2,29.76,WSW,239,3.0,5.0,68,0.00,OVC,,0.00,WeatherDisplay:10.37,2013-04-15 14:00:00,
2013-04-15 09:05:00,47.4,36.6,29.77,WNW,283,3.0,6.0,66,0.00,OVC,,0.00,WeatherDisplay:10.37,2013-04-15 14:05:00,
2013-04-15 09:10:00,47.8,32.4,29.76,NW,309,9.0,12.0,55,0.00,OVC,,0.00,WeatherDisplay:10.37,2013-04-15 14:10:00,
2013-04-15 09:20:00,47.9,31.6,29.77,NW,322,9.0,13.0,53,0.00,OVC,,0.00,WeatherDisplay:10.37,2013-04-15 14:20:00,
2013-04-15 09:30:00,46.7,31.8,29.77,NW,324,8.0,12.0,56,0.00,OVC,,0.00,WeatherDisplay:10.37,2013-04-15 14:30:00,
2013-04-15 09:40:00,46.0,32.0,29.77,NW,321,7.0,12.0,58,0.00,OVC,,0.00,WeatherDisplay:10.37,2013-04-15 14:40:00,
2013-04-15 09:45:00,45.9,31.9,29.77,NW,325,9.0,13.0,58,0.00,OVC,,0.00,WeatherDisplay:10.37,2013-04-15 14:45:00,
2013-04-15 09:50:00,45.8,32.2,29.78,NNW,329,8.0,13.0,59,0.00,OVC,,0.00,WeatherDisplay:10.37,2013-04-15 14:50:00,
2013-04-15 10:00:00,45.4,31.9,29.78,NNW,330,10.0,15.0,59,0.00,OVC,,0.00,WeatherDisplay:10.37,2013-04-15 15:00:00,
2013-04-15 10:10:00,44.6,32.4,29.78,NNW,329,9.0,13.0,62,0.00,OVC,,0.00,WeatherDisplay:10.37,2013-04-15 15:10:00,
2013-04-15 10:15:00,44.6,32.7,29.77,NNW,332,9.0,14.0,63,0.00,OVC,,0.00,WeatherDisplay:10.37,2013-04-15 15:15:00,
2013-04-15 10:25:00,44.6,31.5,29.78,NNW,332,10.0,14.0,60,0.00,OVC,,0.00,WeatherDisplay:10.37,2013-04-15 15:25:00,
2013-04-15 10:30:00,44.5,31.0,29.78,NNW,336,12.0,15.0,59,0.00,OVC,,0.00,WeatherDisplay:10.37,2013-04-15 15:30:00,
2013-04-15 10:41:00,44.4,30.5,29.78,NNW,345,8.0,14.0,58,0.00,OVC,,0.00,WeatherDisplay:10.37,2013-04-15 15:41:00,
2013-04-15 10:50:00,44.5,31.0,29.78,NNW,340,10.0,14.0,59,0.00,OVC,,0.00,WeatherDisplay:10.37,2013-04-15 15:50:00,
2013-04-15 10:55:00,44.7,31.2,29.78,NNW,343,8.0,14.0,59,0.00,OVC,,0.00,WeatherDisplay:10.37,2013-04-15 15:55:00,
2013-04-15 11:00:00,44.9,31.5,29.78,North,351,8.0,12.0,59,0.00,OVC,,0.00,WeatherDisplay:10.37,2013-04-15 16:00:00,
2013-04-15 11:10:00,45.1,30.7,29.78,North,358,7.0,12.0,57,0.00,OVC,,0.00,WeatherDisplay:10.37,2013-04-15 16:10:00,
2013-04-15 11:15:00,45.2,30.8,29.78,North,360,8.0,12.0,57,0.00,OVC,,0.00,WeatherDisplay:10.37,2013-04-15 16:15:00,
2013-04-15 11:20:00,45.1,30.3,29.78,NNE,12,8.0,12.0,56,0.00,OVC,,0.00,WeatherDisplay:10.37,2013-04-15 16:20:00,
2013-04-15 11:25:00,45.2,31.3,29.79,NNE,16,7.0,10.0,58,0.00,OVC,,0.00,WeatherDisplay:10.37,2013-04-15 16:25:00,
2013-04-15 11:30:00,45.3,30.9,29.79,North,356,9.0,13.0,57,0.00,OVC,,0.00,WeatherDisplay:10.37,2013-04-15 16:30:00,
2013-04-15 11:40:00,45.5,31.2,29.79,North,9,7.0,13.0,57,0.00,OVC,,0.00,WeatherDisplay:10.37,2013-04-15 16:40:00,
2013-04-15 11:50:00,45.5,30.7,29.80,NNE,15,7.0,11.0,56,0.00,OVC,,0.00,WeatherDisplay:10.37,2013-04-15 16:50:00,
2013-04-15 12:00:00,45.8,30.9,29.80,NNE,22,7.0,12.0,56,0.00,OVC,,0.00,WeatherDisplay:10.37,2013-04-15 17:00:00,
2013-04-15 12:10:00,45.7,30.9,29.80,North,7,7.0,12.0,56,0.00,OVC,,0.00,WeatherDisplay:10.37,2013-04-15 17:10:00,
2013-04-15 12:15:00,45.8,31.0,29.80,North,1,6.0,10.0,56,0.00,OVC,,0.00,WeatherDisplay:10.37,2013-04-15 17:15:00,
2013-04-15 12:25:00,46.2,31.3,29.81,North,351,6.0,9.0,56,0.00,OVC,,0.00,WeatherDisplay:10.37,2013-04-15 17:25:00,
2013-04-15 12:30:00,46.2,30.9,29.81,NNW,347,10.0,12.0,55,0.00,OVC,,0.00,WeatherDisplay:10.37,2013-04-15 17:30:00,
2013-04-15 12:35:00,46.0,30.7,29.81,NNW,343,7.0,13.0,55,0.00,OVC,,0.00,WeatherDisplay:10.37,2013-04-15 17:35:00,
2013-04-15 12:40:00,46.2,31.3,29.81,NNW,347,8.0,12.0,56,0.00,OVC,,0.00,WeatherDisplay:10.37,2013-04-15 17:40:00,
2013-04-15 12:45:00,46.3,31.0,29.81,NNW,344,10.0,15.0,55,0.00,OVC,,0.00,WeatherDisplay:10.37,2013-04-15 17:45:00,
2013-04-15 12:50:00,46.1,30.3,29.81,NNW,336,12.0,15.0,54,0.00,OVC,,0.00,WeatherDisplay:10.37,2013-04-15 17:50:00,
2013-04-15 13:00:00,46.0,29.8,29.81,NNW,339,9.0,13.0,53,0.00,OVC,,0.00,WeatherDisplay:10.37,2013-04-15 18:00:00,
2013-04-15 13:10:00,46.1,30.9,29.80,NNW,337,8.0,13.0,55,0.00,OVC,,0.00,WeatherDisplay:10.37,2013-04-15 18:10:00,
2013-04-15 13:20:00,46.3,29.6,29.80,NNW,336,12.0,16.0,52,0.00,OVC,,0.00,WeatherDisplay:10.37,2013-04-15 18:20:00,
2013-04-15 13:25:00,45.9,28.8,29.80,NNW,340,12.0,16.0,51,0.00,OVC,,0.00,WeatherDisplay:10.37,2013-04-15 18:25:00,
2013-04-15 13:30:00,46.1,29.5,29.80,NNW,342,9.0,16.0,52,0.00,OVC,,0.00,WeatherDisplay:10.37,2013-04-15 18:30:00,
2013-04-15 13:35:00,46.3,28.6,29.80,NNW,346,12.0,16.0,50,0.00,OVC,,0.00,WeatherDisplay:10.37,2013-04-15 18:35:00,
2013-04-15 13:40:00,46.1,28.4,29.79,NNW,343,9.0,15.0,50,0.00,OVC,,0.00,WeatherDisplay:10.37,2013-04-15 18:40:00,
2013-04-15 13:45:00,46.2,28.5,29.79,North,349,8.0,15.0,50,0.00,OVC,,0.00,WeatherDisplay:10.37,2013-04-15 18:45:00,
2013-04-15 13:50:00,46.2,28.0,29.79,North,355,8.0,13.0,49,0.00,OVC,,0.00,WeatherDisplay:10.37,2013-04-15 18:50:00,
2013-04-15 13:55:00,46.1,28.0,29.79,North,1,8.0,12.0,49,0.00,OVC,,0.00,WeatherDisplay:10.37,2013-04-15 18:55:00,
2013-04-15 14:00:00,46.3,28.1,29.79,North,356,10.0,17.0,49,0.00,OVC,,0.00,WeatherDisplay:10.37,2013-04-15 19:00:00,
2013-04-15 14:10:00,46.0,26.3,29.79,NNW,338,13.0,17.0,46,0.00,OVC,,0.00,WeatherDisplay:10.37,2013-04-15 19:10:00,
2013-04-15 14:15:00,46.2,27.0,29.79,NNW,342,8.0,16.0,47,0.00,OVC,,0.00,WeatherDisplay:10.37,2013-04-15 19:15:00,
2013-04-15 14:20:00,46.1,27.0,29.79,NNW,339,12.0,16.0,47,0.00,OVC,,0.00,WeatherDisplay:10.37,2013-04-15 19:20:00,
2013-04-15 14:25:00,46.1,27.0,29.78,NNW,343,9.0,17.0,47,0.00,OVC,,0.00,WeatherDisplay:10.37,2013-04-15 19:25:00,
2013-04-15 14:30:00,46.4,27.2,29.78,North,356,9.0,13.0,47,0.00,OVC,,0.00,WeatherDisplay:10.37,2013-04-15 19:30:00,
2013-04-15 14:40:00,46.2,26.5,29.78,NNW,342,12.0,16.0,46,0.00,OVC,,0.00,WeatherDisplay:10.37,2013-04-15 19:40:00,
2013-04-15 14:45:00,46.3,27.1,29.78,NNW,340,9.0,15.0,47,0.00,OVC,,0.00,WeatherDisplay:10.37,2013-04-15 19:45:00,
2013-04-15 14:50:00,46.5,27.4,29.78,NNW,342,9.0,14.0,47,0.00,OVC,,0.00,WeatherDisplay:10.37,2013-04-15 19:50:00,
2013-04-15 14:55:00,46.4,25.6,29.77,NNW,342,12.0,15.0,44,0.00,OVC,,0.00,WeatherDisplay:10.37,2013-04-15 19:55:00,
2013-04-15 15:00:00,46.8,27.6,29.77,NNW,341,9.0,12.0,47,0.00,OVC,,0.00,WeatherDisplay:10.37,2013-04-15 20:00:00,
2013-04-15 15:05:00,46.8,28.6,29.78,NNW,347,9.0,16.0,49,0.00,OVC,,0.00,WeatherDisplay:10.37,2013-04-15 20:05:00,
2013-04-15 15:15:00,47.1,28.9,29.78,NNE,15,8.0,13.0,49,0.00,OVC,,0.00,WeatherDisplay:10.37,2013-04-15 20:15:00,
2013-04-15 15:20:00,47.1,28.4,29.77,NNE,13,8.0,12.0,48,0.00,OVC,,0.00,WeatherDisplay:10.37,2013-04-15 20:20:00,
2013-04-15 15:25:00,47.1,27.4,29.77,North,5,9.0,13.0,46,0.00,OVC,,0.00,WeatherDisplay:10.37,2013-04-15 20:25:00,
2013-04-15 15:30:00,47.3,28.0,29.77,North,360,9.0,14.0,47,0.00,OVC,,0.00,WeatherDisplay:10.37,2013-04-15 20:30:00,
2013-04-15 15:40:00,47.5,27.2,29.77,North,7,7.0,12.0,45,0.00,OVC,,0.00,WeatherDisplay:10.37,2013-04-15 20:40:00,
2013-04-15 15:45:00,47.8,28.0,29.76,North,3,9.0,15.0,46,0.00,OVC,,0.00,WeatherDisplay:10.37,2013-04-15 20:45:00,
2013-04-15 15:50:00,48.0,27.6,29.76,North,360,8.0,12.0,45,0.00,OVC,,0.00,WeatherDisplay:10.37,2013-04-15 20:50:00,
2013-04-15 15:55:00,48.2,27.3,29.76,North,4,9.0,13.0,44,0.00,OVC,,0.00,WeatherDisplay:10.37,2013-04-15 20:55:00,
2013-04-15 16:00:00,48.6,27.1,29.76,NNE,12,7.0,12.0,43,0.00,OVC,,0.00,WeatherDisplay:10.37,2013-04-15 21:00:00,
2013-04-15 16:10:00,48.9,27.3,29.76,NNE,13,7.0,12.0,43,0.00,OVC,,0.00,WeatherDisplay:10.37,2013-04-15 21:10:00,
2013-04-15 16:15:00,48.8,27.8,29.76,NNE,14,8.0,12.0,44,0.00,OVC,,0.00,WeatherDisplay:10.37,2013-04-15 21:15:00,
2013-04-15 16:20:00,48.8,27.2,29.76,NNE,19,9.0,12.0,43,0.00,OVC,,0.00,WeatherDisplay:10.37,2013-04-15 21:20:00,
2013-04-15 16:25:00,48.9,27.3,29.76,NNE,18,8.0,12.0,43,0.00,OVC,,0.00,WeatherDisplay:10.37,2013-04-15 21:25:00,
2013-04-15 16:30:00,49.0,26.9,29.76,North,6,7.0,12.0,42,0.00,OVC,,0.00,WeatherDisplay:10.37,2013-04-15 21:30:00,
2013-04-15 16:35:00,49.1,27.5,29.76,NNE,13,7.0,10.0,43,0.00,OVC,,0.00,WeatherDisplay:10.37,2013-04-15 21:35:00,
2013-04-15 16:45:00,49.2,27.6,29.76,NNE,24,8.0,10.0,43,0.00,OVC,,0.00,WeatherDisplay:10.37,2013-04-15 21:45:00,
2013-04-15 16:50:00,49.3,28.8,29.76,NNE,19,7.0,12.0,45,0.00,OVC,,0.00,WeatherDisplay:10.37,2013-04-15 21:50:00,
2013-04-15 16:55:00,49.4,27.8,29.76,NNE,12,8.0,10.0,43,0.00,OVC,,0.00,WeatherDisplay:10.37,2013-04-15 21:55:00,
2013-04-15 17:00:00,49.5,29.0,29.76,North,8,7.0,10.0,45,0.00,OVC,,0.00,WeatherDisplay:10.37,2013-04-15 22:00:00,
2013-04-15 17:10:00,49.7,28.6,29.76,North,11,7.0,10.0,44,0.00,OVC,,0.00,WeatherDisplay:10.37,2013-04-15 22:10:00,
2013-04-15 17:15:00,49.6,29.6,29.76,North,1,9.0,13.0,46,0.00,OVC,,0.00,WeatherDisplay:10.37,2013-04-15 22:15:00,
2013-04-15 17:20:00,49.1,29.7,29.77,NNW,341,10.0,16.0,47,0.00,OVC,,0.00,WeatherDisplay:10.37,2013-04-15 22:20:00,
2013-04-15 17:25:00,48.9,29.5,29.77,NNW,342,9.0,14.0,47,0.00,OVC,,0.00,WeatherDisplay:10.37,2013-04-15 22:25:00,
2013-04-15 17:30:00,48.7,29.3,29.77,NNW,342,10.0,15.0,47,0.00,OVC,,0.00,WeatherDisplay:10.37,2013-04-15 22:30:00,
2013-04-15 17:40:00,48.5,30.2,29.78,NNW,344,8.0,14.0,49,0.00,OVC,,0.00,WeatherDisplay:10.37,2013-04-15 22:40:00,
2013-04-15 17:45:00,48.3,29.5,29.78,NNW,345,10.0,13.0,48,0.00,OVC,,0.00,WeatherDisplay:10.37,2013-04-15 22:45:00,
2013-04-15 17:50:00,48.1,28.8,29.78,NNW,344,8.0,14.0,47,0.00,OVC,,0.00,WeatherDisplay:10.37,2013-04-15 22:50:00,
2013-04-15 17:55:00,48.0,30.2,29.78,NNW,345,8.0,15.0,50,0.00,OVC,,0.00,WeatherDisplay:10.37,2013-04-15 22:55:00,
2013-04-15 18:00:00,47.9,29.6,29.78,NNW,341,8.0,12.0,49,0.00,OVC,,0.00,WeatherDisplay:10.37,2013-04-15 23:00:00,
2013-04-15 18:10:00,47.8,30.0,29.79,North,354,7.0,10.0,50,0.00,OVC,,0.00,WeatherDisplay:10.37,2013-04-15 23:10:00,
2013-04-15 18:15:00,47.9,30.6,29.79,North,1,6.0,10.0,51,0.00,OVC,,0.00,WeatherDisplay:10.37,2013-04-15 23:15:00,
2013-04-15 18:20:00,47.9,30.1,29.79,North,9,7.0,12.0,50,0.00,OVC,,0.00,WeatherDisplay:10.37,2013-04-15 23:20:00,
2013-04-15 18:30:00,47.8,29.0,29.80,North,9,8.0,12.0,48,0.00,OVC,,0.00,WeatherDisplay:10.37,2013-04-15 23:30:00,
2013-04-15 18:35:00,47.6,28.8,29.80,North,9,9.0,13.0,48,0.00,OVC,,0.00,WeatherDisplay:10.37,2013-04-15 23:35:00,
2013-04-15 18:40:00,47.4,29.1,29.80,North,10,9.0,14.0,49,0.00,OVC,,0.00,WeatherDisplay:10.37,2013-04-15 23:40:00,
2013-04-15 18:45:00,47.3,28.5,29.81,NNE,14,8.0,12.0,48,0.00,OVC,,0.00,WeatherDisplay:10.37,2013-04-15 23:45:00,
2013-04-15 18:50:00,47.2,29.0,29.81,North,10,7.0,12.0,49,0.00,OVC,,0.00,WeatherDisplay:10.37,2013-04-15 23:50:00,
2013-04-15 18:55:00,47.1,29.4,29.81,North,9,6.0,10.0,50,0.00,OVC,,0.00,WeatherDisplay:10.37,2013-04-15 23:55:00,
2013-04-15 19:00:00,47.0,29.3,29.81,NNE,23,8.0,13.0,50,0.00,OVC,,0.00,WeatherDisplay:10.37,2013-04-16 00:00:00,
2013-04-15 19:10:00,46.8,30.0,29.81,NNE,17,8.0,12.0,52,0.00,OVC,,0.00,WeatherDisplay:10.37,2013-04-16 00:10:00,
2013-04-15 19:15:00,46.7,30.4,29.82,NNE,24,5.0,9.0,53,0.00,OVC,,0.00,WeatherDisplay:10.37,2013-04-16 00:15:00,
2013-04-15 19:20:00,46.5,29.9,29.82,NNE,16,7.0,12.0,52,0.00,OVC,,0.00,WeatherDisplay:10.37,2013-04-16 00:20:00,
2013-04-15 19:25:00,46.5,29.8,29.82,NNE,18,8.0,12.0,52,0.00,OVC,,0.00,WeatherDisplay:10.37,2013-04-16 00:25:00,
2013-04-15 19:30:00,46.4,29.7,29.83,NNE,18,7.0,12.0,52,0.00,OVC,,0.00,WeatherDisplay:10.37,2013-04-16 00:30:00,
2013-04-15 19:40:00,46.3,29.6,29.83,NNE,16,8.0,13.0,52,0.00,OVC,,0.00,WeatherDisplay:10.37,2013-04-16 00:40:00,
2013-04-15 19:50:00,46.2,29.5,29.83,North,357,7.0,12.0,52,0.00,OVC,,0.00,WeatherDisplay:10.37,2013-04-16 00:50:00,
2013-04-15 19:55:00,46.1,28.9,29.83,North,5,8.0,12.0,51,0.00,OVC,,0.00,WeatherDisplay:10.37,2013-04-16 00:55:00,
2013-04-15 20:00:00,46.0,29.3,29.84,North,10,7.0,10.0,52,0.00,OVC,,0.00,WeatherDisplay:10.37,2013-04-16 01:00:00,
2013-04-15 20:10:00,45.9,29.2,29.84,NNE,13,7.0,9.0,52,0.00,OVC,,0.00,WeatherDisplay:10.37,2013-04-16 01:10:00,
2013-04-15 20:15:00,45.9,29.7,29.84,NNE,18,6.0,9.0,53,0.00,OVC,,0.00,WeatherDisplay:10.37,2013-04-16 01:15:00,
2013-04-15 20:20:00,45.8,29.6,29.84,NNE,19,7.0,10.0,53,0.00,OVC,,0.00,WeatherDisplay:10.37,2013-04-16 01:20:00,
2013-04-15 20:25:00,45.7,30.0,29.85,North,10,7.0,12.0,54,0.00,OVC,,0.00,WeatherDisplay:10.37,2013-04-16 01:25:00,
2013-04-15 20:30:00,45.7,29.5,29.85,North,10,8.0,12.0,53,0.00,OVC,,0.00,WeatherDisplay:10.37,2013-04-16 01:30:00,
2013-04-15 20:35:00,45.7,29.5,29.86,North,359,7.0,12.0,53,0.00,OVC,,0.00,WeatherDisplay:10.37,2013-04-16 01:35:00,
2013-04-15 20:40:00,45.7,30.0,29.86,North,1,7.0,12.0,54,0.00,OVC,,0.00,WeatherDisplay:10.37,2013-04-16 01:40:00,
2013-04-15 20:45:00,45.6,29.9,29.86,North,4,7.0,10.0,54,0.00,OVC,,0.00,WeatherDisplay:10.37,2013-04-16 01:45:00,
2013-04-15 20:50:00,45.6,29.4,29.87,North,7,8.0,14.0,53,0.00,OVC,,0.00,WeatherDisplay:10.37,2013-04-16 01:50:00,
2013-04-15 20:55:00,45.6,29.4,29.87,NNE,13,8.0,14.0,53,0.00,OVC,,0.00,WeatherDisplay:10.37,2013-04-16 01:55:00,
2013-04-15 21:00:00,45.5,29.3,29.88,North,7,6.0,12.0,53,0.00,OVC,,0.00,WeatherDisplay:10.37,2013-04-16 02:00:00,
2013-04-15 21:10:00,45.4,29.8,29.89,North,7,7.0,12.0,54,0.00,OVC,,0.00,WeatherDisplay:10.37,2013-04-16 02:10:00,
2013-04-15 21:15:00,45.5,29.8,29.89,North,7,8.0,13.0,54,0.00,OVC,,0.00,WeatherDisplay:10.37,2013-04-16 02:15:00,
2013-04-15 21:20:00,45.4,29.3,29.89,North,4,9.0,13.0,53,0.00,OVC,,0.00,WeatherDisplay:10.37,2013-04-16 02:20:00,
2013-04-15 21:25:00,45.4,29.7,29.90,North,0,8.0,13.0,54,0.00,OVC,,0.00,WeatherDisplay:10.37,2013-04-16 02:25:00,
2013-04-15 21:30:00,45.3,29.6,29.90,North,360,8.0,12.0,54,0.00,OVC,,0.00,WeatherDisplay:10.37,2013-04-16 02:30:00,
2013-04-15 21:40:00,45.3,30.0,29.91,North,5,7.0,10.0,55,0.00,OVC,,0.00,WeatherDisplay:10.37,2013-04-16 02:40:00,
2013-04-15 21:50:00,45.2,29.9,29.91,North,11,8.0,12.0,55,0.00,OVC,,0.00,WeatherDisplay:10.37,2013-04-16 02:50:00,
2013-04-15 22:00:00,45.1,29.9,29.92,North,7,8.0,13.0,55,0.00,OVC,,0.00,WeatherDisplay:10.37,2013-04-16 03:00:00,
2013-04-15 22:10:00,45.1,30.3,29.92,North,9,7.0,10.0,56,0.00,OVC,,0.00,WeatherDisplay:10.37,2013-04-16 03:10:00,
2013-04-15 22:20:00,44.8,30.0,29.92,North,11,7.0,12.0,56,0.00,OVC,,0.00,WeatherDisplay:10.37,2013-04-16 03:20:00,
2013-04-15 22:25:00,44.8,30.0,29.92,NNE,13,7.0,12.0,56,0.00,OVC,,0.00,WeatherDisplay:10.37,2013-04-16 03:25:00,
2013-04-15 22:30:00,44.7,30.0,29.92,NNE,17,7.0,13.0,56,0.00,OVC,,0.00,WeatherDisplay:10.37,2013-04-16 03:30:00,
2013-04-15 22:40:00,44.6,29.8,29.92,North,3,9.0,12.0,56,0.00,OVC,,0.00,WeatherDisplay:10.37,2013-04-16 03:40:00,
2013-04-15 22:45:00,44.5,29.7,29.92,North,4,7.0,16.0,56,0.00,OVC,,0.00,WeatherDisplay:10.37,2013-04-16 03:45:00,
2013-04-15 22:50:00,44.4,29.6,29.92,North,7,7.0,16.0,56,0.00,OVC,,0.00,WeatherDisplay:10.37,2013-04-16 03:50:00,
2013-04-15 22:55:00,44.2,29.9,29.92,North,2,9.0,14.0,57,0.00,OVC,,0.00,WeatherDisplay:10.37,2013-04-16 03:55:00,
2013-04-15 23:00:00,44.0,29.7,29.92,North,357,8.0,12.0,57,0.00,OVC,,0.00,WeatherDisplay:10.37,2013-04-16 04:00:00,
2013-04-15 23:05:00,43.9,29.6,29.92,North,357,8.0,14.0,57,0.00,OVC,,0.00,WeatherDisplay:10.37,2013-04-16 04:05:00,
2013-04-15 23:10:00,43.7,29.5,29.92,North,360,9.0,14.0,57,0.00,OVC,,0.00,WeatherDisplay:10.37,2013-04-16 04:10:00,
2013-04-15 23:15:00,43.7,29.4,29.92,North,8,9.0,14.0,57,0.00,OVC,,0.00,WeatherDisplay:10.37,2013-04-16 04:15:00,
2013-04-15 23:20:00,43.4,29.6,29.92,North,7,8.0,16.0,58,0.00,OVC,,0.00,WeatherDisplay:10.37,2013-04-16 04:20:00,
2013-04-15 23:25:00,43.3,29.9,29.92,North,1,8.0,12.0,59,0.00,OVC,,0.00,WeatherDisplay:10.37,2013-04-16 04:25:00,
2013-04-15 23:30:00,43.2,29.8,29.92,North,357,9.0,14.0,59,0.00,OVC,,0.00,WeatherDisplay:10.37,2013-04-16 04:30:00,
2013-04-15 23:40:00,43.2,29.8,29.92,North,1,9.0,14.0,59,0.00,OVC,,0.00,WeatherDisplay:10.37,2013-04-16 04:40:00,
2013-04-15 23:45:00,43.1,29.7,29.92,NNE,15,7.0,13.0,59,0.00,OVC,,0.00,WeatherDisplay:10.37,2013-04-16 04:45:00,
2013-04-15 23:50:00,43.0,29.6,29.92,NNE,14,8.0,13.0,59,0.00,OVC,,0.00,WeatherDisplay:10.37,2013-04-16 04:50:00,
2013-04-15 23:55:00,42.9,29.5,29.92,North,6,9.0,13.0,59,0.00,OVC,,0.00,WeatherDisplay:10.37,2013-04-16 04:55:00,